createdAt,value
2019-05-21T04:29:48.465Z,100.00
2019-05-21T04:39:50.588Z,100.00
2019-05-21T04:49:48.539Z,100.00
2019-05-21T04:59:48.573Z,100.00
2019-05-21T05:09:48.523Z,100.00
2019-05-21T05:19:48.638Z,100.00
2019-05-21T05:29:48.566Z,100.00
2019-05-21T05:39:48.559Z,100.00
2019-05-21T05:49:48.529Z,100.00
2019-05-21T05:59:48.589Z,100.00
2019-05-21T06:09:50.229Z,100.00
2019-05-21T06:29:54.125Z,100.00
2019-05-21T06:39:55.129Z,100.00
2019-05-21T06:49:53.964Z,100.00
2019-05-21T06:59:54.040Z,100.00
2019-05-21T07:09:56.270Z,100.00
2019-05-21T07:19:54.097Z,100.00
2019-05-21T07:29:53.993Z,100.00
2019-05-21T07:39:53.949Z,100.00
2019-05-21T08:20:09.322Z,100.00
2019-05-21T08:30:01.429Z,100.00
2019-05-21T08:50:07.304Z,100.00
2019-05-21T09:00:07.602Z,100.00
2019-05-21T16:43:06.318Z,83.63
2019-05-21T16:53:07.086Z,83.05
2019-05-21T17:03:06.391Z,82.70
2019-05-21T17:13:06.413Z,82.08
2019-05-21T17:23:06.361Z,82.43
2019-05-21T17:33:06.358Z,82.48
2019-05-21T17:43:08.197Z,82.47
2019-05-21T17:53:06.465Z,82.50
2019-05-21T18:03:06.419Z,83.21
2019-05-21T18:13:06.409Z,83.31
2019-05-21T18:23:06.355Z,82.70
2019-05-21T18:33:07.276Z,82.40
2019-05-21T18:43:06.430Z,83.79
2019-05-21T18:53:06.362Z,84.69
2019-05-21T19:03:06.337Z,85.98
2019-05-21T19:13:06.435Z,86.63
2019-05-21T19:23:06.390Z,87.72
2019-05-21T19:33:07.288Z,88.50
2019-05-21T19:43:06.432Z,89.54
2019-05-21T19:53:06.380Z,90.24
2019-05-21T20:03:06.374Z,90.61
2019-05-21T20:13:06.475Z,91.29
2019-05-21T20:23:08.592Z,91.36
2019-05-21T20:33:06.365Z,91.24
2019-05-21T20:43:06.428Z,91.38
2019-05-21T20:53:07.445Z,90.89
2019-05-21T21:03:06.379Z,90.50
2019-05-21T21:13:06.751Z,90.81
2019-05-21T21:23:06.558Z,92.66
2019-05-21T21:33:06.392Z,92.69
2019-05-21T21:43:08.040Z,93.37
2019-05-21T21:53:06.466Z,93.94
2019-05-21T22:03:06.370Z,93.92
2019-05-21T22:13:06.571Z,93.83
2019-05-21T22:23:06.430Z,95.19
2019-05-21T22:33:06.427Z,95.07
2019-05-21T22:43:06.372Z,95.85
2019-05-21T22:53:06.450Z,97.13
2019-05-21T23:03:06.416Z,96.92
2019-05-21T23:13:07.083Z,96.95
2019-05-21T23:23:06.463Z,97.51
2019-05-21T23:33:06.511Z,97.52
2019-05-21T23:43:06.372Z,97.65
2019-05-21T23:53:06.445Z,97.51
